sensor_id;sensor_type;location;lat;lon;timestamp;P1;durP1;ratioP1;P2;durP2;ratioP2
43088;SDS011;28709;52.030;5.652;2023-07-16T00:00:46;6.10;;;1.60;;
43088;SDS011;28709;52.030;5.652;2023-07-16T00:03:12;6.90;;;1.63;;
43088;SDS011;28709;52.030;5.652;2023-07-16T00:05:39;9.02;;;1.40;;
43088;SDS011;28709;52.030;5.652;2023-07-16T00:08:04;7.03;;;1.70;;
43088;SDS011;28709;52.030;5.652;2023-07-16T00:10:33;5.68;;;1.92;;
43088;SDS011;28709;52.030;5.652;2023-07-16T00:13:02;5.45;;;1.67;;
43088;SDS011;28709;52.030;5.652;2023-07-16T00:15:28;6.95;;;1.92;;
43088;SDS011;28709;52.030;5.652;2023-07-16T00:17:54;6.00;;;1.95;;
43088;SDS011;28709;52.030;5.652;2023-07-16T00:20:20;4.78;;;1.50;;
43088;SDS011;28709;52.030;5.652;2023-07-16T00:22:48;11.30;;;2.25;;
43088;SDS011;28709;52.030;5.652;2023-07-16T00:25:14;7.50;;;1.60;;
43088;SDS011;28709;52.030;5.652;2023-07-16T00:27:40;7.10;;;2.05;;
43088;SDS011;28709;52.030;5.652;2023-07-16T00:30:06;5.78;;;1.85;;
43088;SDS011;28709;52.030;5.652;2023-07-16T00:32:32;8.45;;;1.92;;
43088;SDS011;28709;52.030;5.652;2023-07-16T00:34:58;6.80;;;2.10;;
43088;SDS011;28709;52.030;5.652;2023-07-16T00:37:23;7.45;;;1.92;;
43088;SDS011;28709;52.030;5.652;2023-07-16T00:39:49;8.35;;;2.00;;
43088;SDS011;28709;52.030;5.652;2023-07-16T00:42:15;6.88;;;2.10;;
43088;SDS011;28709;52.030;5.652;2023-07-16T00:44:41;8.32;;;2.67;;
43088;SDS011;28709;52.030;5.652;2023-07-16T00:47:07;6.75;;;2.05;;
43088;SDS011;28709;52.030;5.652;2023-07-16T00:49:33;4.35;;;1.20;;
43088;SDS011;28709;52.030;5.652;2023-07-16T00:51:59;9.13;;;2.13;;
43088;SDS011;28709;52.030;5.652;2023-07-16T00:54:26;5.03;;;1.48;;
43088;SDS011;28709;52.030;5.652;2023-07-16T00:56:52;5.63;;;2.20;;
43088;SDS011;28709;52.030;5.652;2023-07-16T00:59:18;5.45;;;1.85;;
43088;SDS011;28709;52.030;5.652;2023-07-16T01:01:44;5.13;;;1.55;;
43088;SDS011;28709;52.030;5.652;2023-07-16T01:04:09;4.05;;;1.85;;
43088;SDS011;28709;52.030;5.652;2023-07-16T01:06:36;8.10;;;1.88;;
43088;SDS011;28709;52.030;5.652;2023-07-16T01:11:35;5.40;;;2.00;;
43088;SDS011;28709;52.030;5.652;2023-07-16T01:14:02;5.88;;;1.80;;
43088;SDS011;28709;52.030;5.652;2023-07-16T01:16:29;3.92;;;2.05;;
43088;SDS011;28709;52.030;5.652;2023-07-16T01:18:54;8.40;;;2.05;;
43088;SDS011;28709;52.030;5.652;2023-07-16T01:21:21;5.97;;;1.98;;
43088;SDS011;28709;52.030;5.652;2023-07-16T01:30:03;3.60;;;1.73;;
43088;SDS011;28709;52.030;5.652;2023-07-16T01:32:30;4.93;;;1.60;;
43088;SDS011;28709;52.030;5.652;2023-07-16T01:34:56;5.28;;;1.90;;
43088;SDS011;28709;52.030;5.652;2023-07-16T01:37:22;5.90;;;1.98;;
43088;SDS011;28709;52.030;5.652;2023-07-16T01:39:49;7.88;;;2.00;;
43088;SDS011;28709;52.030;5.652;2023-07-16T01:42:15;4.43;;;1.65;;
43088;SDS011;28709;52.030;5.652;2023-07-16T01:44:40;14.70;;;1.98;;
43088;SDS011;28709;52.030;5.652;2023-07-16T01:47:08;5.85;;;1.92;;
43088;SDS011;28709;52.030;5.652;2023-07-16T01:49:37;6.72;;;1.90;;
43088;SDS011;28709;52.030;5.652;2023-07-16T01:52:04;5.05;;;1.58;;
43088;SDS011;28709;52.030;5.652;2023-07-16T01:54:31;7.45;;;2.83;;
43088;SDS011;28709;52.030;5.652;2023-07-16T01:56:57;7.38;;;2.25;;
43088;SDS011;28709;52.030;5.652;2023-07-16T01:59:23;7.50;;;2.10;;
43088;SDS011;28709;52.030;5.652;2023-07-16T02:01:48;5.68;;;2.03;;
43088;SDS011;28709;52.030;5.652;2023-07-16T02:04:14;5.13;;;1.80;;
43088;SDS011;28709;52.030;5.652;2023-07-16T02:06:40;6.18;;;2.05;;
43088;SDS011;28709;52.030;5.652;2023-07-16T02:09:05;6.25;;;2.60;;
43088;SDS011;28709;52.030;5.652;2023-07-16T02:11:31;6.95;;;2.50;;
43088;SDS011;28709;52.030;5.652;2023-07-16T02:13:57;11.60;;;2.28;;
43088;SDS011;28709;52.030;5.652;2023-07-16T02:16:22;6.57;;;1.92;;
43088;SDS011;28709;52.030;5.652;2023-07-16T02:18:48;5.90;;;2.03;;
43088;SDS011;28709;52.030;5.652;2023-07-16T02:21:13;6.38;;;1.67;;
43088;SDS011;28709;52.030;5.652;2023-07-16T02:23:39;6.70;;;2.00;;
43088;SDS011;28709;52.030;5.652;2023-07-16T02:26:05;6.75;;;1.63;;
43088;SDS011;28709;52.030;5.652;2023-07-16T02:28:30;9.18;;;2.78;;
43088;SDS011;28709;52.030;5.652;2023-07-16T02:30:56;7.38;;;2.47;;
43088;SDS011;28709;52.030;5.652;2023-07-16T02:33:22;6.95;;;2.40;;
43088;SDS011;28709;52.030;5.652;2023-07-16T02:35:49;5.70;;;2.20;;
43088;SDS011;28709;52.030;5.652;2023-07-16T02:38:16;5.38;;;1.92;;
43088;SDS011;28709;52.030;5.652;2023-07-16T02:40:43;5.72;;;2.20;;
43088;SDS011;28709;52.030;5.652;2023-07-16T02:43:09;7.55;;;2.25;;
43088;SDS011;28709;52.030;5.652;2023-07-16T02:45:35;15.43;;;3.22;;
43088;SDS011;28709;52.030;5.652;2023-07-16T02:48:00;7.97;;;2.10;;
43088;SDS011;28709;52.030;5.652;2023-07-16T02:50:27;7.30;;;2.25;;
43088;SDS011;28709;52.030;5.652;2023-07-16T02:52:52;6.38;;;1.98;;
43088;SDS011;28709;52.030;5.652;2023-07-16T02:55:18;9.43;;;2.33;;
43088;SDS011;28709;52.030;5.652;2023-07-16T02:57:44;5.65;;;2.20;;
43088;SDS011;28709;52.030;5.652;2023-07-16T03:00:09;4.15;;;1.80;;
43088;SDS011;28709;52.030;5.652;2023-07-16T03:02:35;7.95;;;2.58;;
43088;SDS011;28709;52.030;5.652;2023-07-16T03:05:01;13.32;;;2.70;;
43088;SDS011;28709;52.030;5.652;2023-07-16T03:07:27;8.35;;;2.47;;
43088;SDS011;28709;52.030;5.652;2023-07-16T03:09:52;5.68;;;2.50;;
43088;SDS011;28709;52.030;5.652;2023-07-16T03:12:18;4.68;;;1.85;;
43088;SDS011;28709;52.030;5.652;2023-07-16T03:14:44;8.50;;;2.50;;
43088;SDS011;28709;52.030;5.652;2023-07-16T03:17:09;7.47;;;2.60;;
43088;SDS011;28709;52.030;5.652;2023-07-16T03:19:35;5.90;;;2.50;;
43088;SDS011;28709;52.030;5.652;2023-07-16T03:22:00;5.65;;;2.28;;
43088;SDS011;28709;52.030;5.652;2023-07-16T03:24:27;11.68;;;3.58;;
43088;SDS011;28709;52.030;5.652;2023-07-16T03:26:53;13.88;;;2.63;;
43088;SDS011;28709;52.030;5.652;2023-07-16T03:29:19;10.80;;;2.67;;
43088;SDS011;28709;52.030;5.652;2023-07-16T03:31:44;8.77;;;2.28;;
43088;SDS011;28709;52.030;5.652;2023-07-16T03:34:10;4.90;;;2.20;;
43088;SDS011;28709;52.030;5.652;2023-07-16T03:36:35;6.30;;;2.05;;
43088;SDS011;28709;52.030;5.652;2023-07-16T03:39:01;8.25;;;2.60;;
43088;SDS011;28709;52.030;5.652;2023-07-16T03:41:27;10.13;;;2.28;;
43088;SDS011;28709;52.030;5.652;2023-07-16T03:43:53;8.70;;;3.40;;
43088;SDS011;28709;52.030;5.652;2023-07-16T03:46:19;9.18;;;2.50;;
43088;SDS011;28709;52.030;5.652;2023-07-16T03:48:44;9.43;;;2.58;;
43088;SDS011;28709;52.030;5.652;2023-07-16T03:51:11;8.18;;;2.47;;
43088;SDS011;28709;52.030;5.652;2023-07-16T03:53:36;5.93;;;2.13;;
43088;SDS011;28709;52.030;5.652;2023-07-16T03:56:02;8.60;;;2.25;;
43088;SDS011;28709;52.030;5.652;2023-07-16T03:58:28;6.13;;;2.58;;
43088;SDS011;28709;52.030;5.652;2023-07-16T04:00:54;8.00;;;2.50;;
43088;SDS011;28709;52.030;5.652;2023-07-16T04:03:20;5.63;;;2.50;;
43088;SDS011;28709;52.030;5.652;2023-07-16T04:05:46;8.18;;;2.60;;
43088;SDS011;28709;52.030;5.652;2023-07-16T04:08:12;7.28;;;2.95;;
43088;SDS011;28709;52.030;5.652;2023-07-16T04:10:38;6.43;;;2.83;;
43088;SDS011;28709;52.030;5.652;2023-07-16T04:13:03;9.00;;;3.08;;
43088;SDS011;28709;52.030;5.652;2023-07-16T04:15:29;8.32;;;3.00;;
43088;SDS011;28709;52.030;5.652;2023-07-16T04:17:55;12.43;;;3.38;;
43088;SDS011;28709;52.030;5.652;2023-07-16T04:20:20;7.47;;;2.70;;
43088;SDS011;28709;52.030;5.652;2023-07-16T04:22:46;9.50;;;3.00;;
43088;SDS011;28709;52.030;5.652;2023-07-16T04:25:11;6.97;;;2.72;;
43088;SDS011;28709;52.030;5.652;2023-07-16T04:27:38;10.30;;;2.78;;
43088;SDS011;28709;52.030;5.652;2023-07-16T04:30:06;10.75;;;3.05;;
43088;SDS011;28709;52.030;5.652;2023-07-16T04:32:32;8.23;;;3.20;;
43088;SDS011;28709;52.030;5.652;2023-07-16T04:34:58;10.27;;;3.08;;
43088;SDS011;28709;52.030;5.652;2023-07-16T04:37:24;5.72;;;2.50;;
43088;SDS011;28709;52.030;5.652;2023-07-16T04:39:50;9.05;;;3.00;;
43088;SDS011;28709;52.030;5.652;2023-07-16T04:42:15;4.57;;;2.35;;
43088;SDS011;28709;52.030;5.652;2023-07-16T04:44:42;7.40;;;2.78;;
43088;SDS011;28709;52.030;5.652;2023-07-16T04:47:07;10.60;;;3.63;;
43088;SDS011;28709;52.030;5.652;2023-07-16T04:49:34;6.55;;;2.63;;
43088;SDS011;28709;52.030;5.652;2023-07-16T04:52:00;11.30;;;3.60;;
43088;SDS011;28709;52.030;5.652;2023-07-16T04:54:26;6.95;;;2.22;;
43088;SDS011;28709;52.030;5.652;2023-07-16T04:56:51;8.30;;;3.10;;
43088;SDS011;28709;52.030;5.652;2023-07-16T04:59:17;8.52;;;2.83;;
43088;SDS011;28709;52.030;5.652;2023-07-16T05:01:43;5.07;;;2.70;;
43088;SDS011;28709;52.030;5.652;2023-07-16T05:04:08;8.30;;;3.17;;
43088;SDS011;28709;52.030;5.652;2023-07-16T05:06:34;8.70;;;3.28;;
43088;SDS011;28709;52.030;5.652;2023-07-16T05:08:59;8.70;;;3.40;;
43088;SDS011;28709;52.030;5.652;2023-07-16T05:11:25;9.10;;;3.28;;
43088;SDS011;28709;52.030;5.652;2023-07-16T05:13:51;13.23;;;3.25;;
43088;SDS011;28709;52.030;5.652;2023-07-16T05:16:16;5.88;;;3.08;;
43088;SDS011;28709;52.030;5.652;2023-07-16T05:18:42;6.78;;;2.50;;
43088;SDS011;28709;52.030;5.652;2023-07-16T05:21:08;12.93;;;3.38;;
43088;SDS011;28709;52.030;5.652;2023-07-16T05:23:33;7.65;;;3.30;;
43088;SDS011;28709;52.030;5.652;2023-07-16T05:25:59;6.43;;;3.13;;
43088;SDS011;28709;52.030;5.652;2023-07-16T05:28:24;7.63;;;3.30;;
43088;SDS011;28709;52.030;5.652;2023-07-16T05:30:57;11.63;;;3.72;;
43088;SDS011;28709;52.030;5.652;2023-07-16T05:33:24;4.85;;;3.08;;
43088;SDS011;28709;52.030;5.652;2023-07-16T05:35:49;6.78;;;3.03;;
43088;SDS011;28709;52.030;5.652;2023-07-16T05:38:15;8.57;;;3.70;;
43088;SDS011;28709;52.030;5.652;2023-07-16T05:40:41;9.75;;;3.67;;
43088;SDS011;28709;52.030;5.652;2023-07-16T05:43:06;10.02;;;3.47;;
43088;SDS011;28709;52.030;5.652;2023-07-16T05:45:32;7.88;;;3.63;;
43088;SDS011;28709;52.030;5.652;2023-07-16T05:47:58;11.75;;;3.55;;
43088;SDS011;28709;52.030;5.652;2023-07-16T05:50:24;8.00;;;3.60;;
43088;SDS011;28709;52.030;5.652;2023-07-16T05:52:49;13.38;;;3.45;;
43088;SDS011;28709;52.030;5.652;2023-07-16T05:55:15;7.97;;;3.28;;
43088;SDS011;28709;52.030;5.652;2023-07-16T05:57:42;9.60;;;3.72;;
43088;SDS011;28709;52.030;5.652;2023-07-16T06:00:07;8.65;;;3.88;;
43088;SDS011;28709;52.030;5.652;2023-07-16T06:02:34;6.38;;;3.25;;
43088;SDS011;28709;52.030;5.652;2023-07-16T06:04:59;8.50;;;3.92;;
43088;SDS011;28709;52.030;5.652;2023-07-16T06:07:25;11.15;;;3.78;;
43088;SDS011;28709;52.030;5.652;2023-07-16T06:09:51;11.82;;;3.85;;
43088;SDS011;28709;52.030;5.652;2023-07-16T06:12:16;9.27;;;3.63;;
43088;SDS011;28709;52.030;5.652;2023-07-16T06:14:42;11.05;;;4.07;;
43088;SDS011;28709;52.030;5.652;2023-07-16T06:17:08;11.07;;;4.50;;
43088;SDS011;28709;52.030;5.652;2023-07-16T06:19:33;8.95;;;3.63;;
43088;SDS011;28709;52.030;5.652;2023-07-16T06:21:59;7.97;;;3.78;;
43088;SDS011;28709;52.030;5.652;2023-07-16T06:24:25;9.82;;;3.80;;
43088;SDS011;28709;52.030;5.652;2023-07-16T06:26:50;22.08;;;4.60;;
43088;SDS011;28709;52.030;5.652;2023-07-16T06:29:16;8.13;;;4.43;;
43088;SDS011;28709;52.030;5.652;2023-07-16T06:31:42;9.98;;;4.07;;
43088;SDS011;28709;52.030;5.652;2023-07-16T06:34:09;13.82;;;3.78;;
43088;SDS011;28709;52.030;5.652;2023-07-16T06:36:35;8.05;;;3.88;;
43088;SDS011;28709;52.030;5.652;2023-07-16T06:39:00;7.97;;;3.80;;
43088;SDS011;28709;52.030;5.652;2023-07-16T06:41:26;8.75;;;3.72;;
43088;SDS011;28709;52.030;5.652;2023-07-16T06:43:51;7.20;;;3.65;;
43088;SDS011;28709;52.030;5.652;2023-07-16T06:46:17;9.10;;;4.25;;
43088;SDS011;28709;52.030;5.652;2023-07-16T06:48:43;8.98;;;3.90;;
43088;SDS011;28709;52.030;5.652;2023-07-16T06:51:08;5.93;;;3.38;;
43088;SDS011;28709;52.030;5.652;2023-07-16T06:53:34;10.60;;;3.83;;
43088;SDS011;28709;52.030;5.652;2023-07-16T06:56:01;9.93;;;3.63;;
43088;SDS011;28709;52.030;5.652;2023-07-16T06:58:32;8.70;;;3.85;;
43088;SDS011;28709;52.030;5.652;2023-07-16T07:00:58;8.10;;;3.40;;
43088;SDS011;28709;52.030;5.652;2023-07-16T07:03:24;9.40;;;3.63;;
43088;SDS011;28709;52.030;5.652;2023-07-16T07:05:50;10.73;;;3.40;;
43088;SDS011;28709;52.030;5.652;2023-07-16T07:08:15;9.20;;;4.15;;
43088;SDS011;28709;52.030;5.652;2023-07-16T07:10:41;10.10;;;3.80;;
43088;SDS011;28709;52.030;5.652;2023-07-16T07:13:06;10.68;;;3.70;;
43088;SDS011;28709;52.030;5.652;2023-07-16T07:15:32;9.05;;;3.55;;
43088;SDS011;28709;52.030;5.652;2023-07-16T07:17:58;9.82;;;3.97;;
43088;SDS011;28709;52.030;5.652;2023-07-16T07:20:23;9.73;;;3.83;;
43088;SDS011;28709;52.030;5.652;2023-07-16T07:22:49;8.98;;;3.63;;
43088;SDS011;28709;52.030;5.652;2023-07-16T07:25:14;6.82;;;3.30;;
43088;SDS011;28709;52.030;5.652;2023-07-16T07:27:40;10.95;;;4.22;;
43088;SDS011;28709;52.030;5.652;2023-07-16T07:30:06;6.97;;;3.45;;
43088;SDS011;28709;52.030;5.652;2023-07-16T07:32:32;9.23;;;4.55;;
43088;SDS011;28709;52.030;5.652;2023-07-16T07:35:01;9.75;;;4.28;;
43088;SDS011;28709;52.030;5.652;2023-07-16T07:37:27;6.80;;;3.78;;
43088;SDS011;28709;52.030;5.652;2023-07-16T07:39:52;9.50;;;4.10;;
43088;SDS011;28709;52.030;5.652;2023-07-16T07:42:18;9.85;;;4.20;;
43088;SDS011;28709;52.030;5.652;2023-07-16T07:44:44;8.70;;;3.95;;
43088;SDS011;28709;52.030;5.652;2023-07-16T07:47:10;10.50;;;4.13;;
43088;SDS011;28709;52.030;5.652;2023-07-16T07:49:35;10.95;;;3.78;;
43088;SDS011;28709;52.030;5.652;2023-07-16T07:52:01;7.72;;;3.70;;
43088;SDS011;28709;52.030;5.652;2023-07-16T07:54:27;10.07;;;4.45;;
43088;SDS011;28709;52.030;5.652;2023-07-16T07:56:52;8.90;;;3.78;;
43088;SDS011;28709;52.030;5.652;2023-07-16T07:59:18;12.32;;;4.10;;
43088;SDS011;28709;52.030;5.652;2023-07-16T08:01:43;5.93;;;3.20;;
43088;SDS011;28709;52.030;5.652;2023-07-16T08:04:09;6.63;;;3.70;;
43088;SDS011;28709;52.030;5.652;2023-07-16T08:06:35;7.03;;;3.60;;
43088;SDS011;28709;52.030;5.652;2023-07-16T08:09:00;11.50;;;4.40;;
43088;SDS011;28709;52.030;5.652;2023-07-16T08:11:26;10.52;;;3.67;;
43088;SDS011;28709;52.030;5.652;2023-07-16T08:13:51;14.15;;;4.30;;
43088;SDS011;28709;52.030;5.652;2023-07-16T08:16:17;9.80;;;4.15;;
43088;SDS011;28709;52.030;5.652;2023-07-16T08:18:43;10.50;;;4.60;;
43088;SDS011;28709;52.030;5.652;2023-07-16T08:21:08;8.95;;;3.97;;
43088;SDS011;28709;52.030;5.652;2023-07-16T08:23:34;7.82;;;3.85;;
43088;SDS011;28709;52.030;5.652;2023-07-16T08:25:59;14.95;;;5.72;;
43088;SDS011;28709;52.030;5.652;2023-07-16T08:28:25;9.88;;;5.05;;
43088;SDS011;28709;52.030;5.652;2023-07-16T08:30:51;7.72;;;4.50;;
43088;SDS011;28709;52.030;5.652;2023-07-16T08:33:17;7.10;;;3.45;;
43088;SDS011;28709;52.030;5.652;2023-07-16T08:35:43;7.15;;;3.72;;
43088;SDS011;28709;52.030;5.652;2023-07-16T08:38:08;9.63;;;4.05;;
43088;SDS011;28709;52.030;5.652;2023-07-16T08:40:38;9.02;;;4.43;;
43088;SDS011;28709;52.030;5.652;2023-07-16T08:43:05;6.70;;;3.72;;
43088;SDS011;28709;52.030;5.652;2023-07-16T08:45:35;7.35;;;3.80;;
43088;SDS011;28709;52.030;5.652;2023-07-16T08:48:05;14.15;;;4.32;;
43088;SDS011;28709;52.030;5.652;2023-07-16T08:50:32;10.75;;;4.00;;
43088;SDS011;28709;52.030;5.652;2023-07-16T08:53:01;8.88;;;3.88;;
43088;SDS011;28709;52.030;5.652;2023-07-16T08:55:28;7.90;;;4.00;;
43088;SDS011;28709;52.030;5.652;2023-07-16T08:57:54;12.50;;;4.28;;
43088;SDS011;28709;52.030;5.652;2023-07-16T09:00:20;9.30;;;4.22;;
43088;SDS011;28709;52.030;5.652;2023-07-16T09:02:47;7.97;;;3.83;;
43088;SDS011;28709;52.030;5.652;2023-07-16T09:05:13;9.05;;;4.05;;
43088;SDS011;28709;52.030;5.652;2023-07-16T09:07:40;6.65;;;3.55;;
43088;SDS011;28709;52.030;5.652;2023-07-16T09:10:06;9.70;;;4.18;;
43088;SDS011;28709;52.030;5.652;2023-07-16T09:12:32;12.73;;;4.45;;
43088;SDS011;28709;52.030;5.652;2023-07-16T09:14:57;9.20;;;4.22;;
43088;SDS011;28709;52.030;5.652;2023-07-16T09:17:23;10.07;;;4.75;;
43088;SDS011;28709;52.030;5.652;2023-07-16T09:19:50;10.70;;;4.20;;
43088;SDS011;28709;52.030;5.652;2023-07-16T09:22:17;9.75;;;4.18;;
43088;SDS011;28709;52.030;5.652;2023-07-16T09:24:44;8.77;;;3.78;;
43088;SDS011;28709;52.030;5.652;2023-07-16T09:27:12;5.50;;;3.88;;
43088;SDS011;28709;52.030;5.652;2023-07-16T09:29:38;8.95;;;3.83;;
43088;SDS011;28709;52.030;5.652;2023-07-16T09:32:04;7.03;;;4.15;;
43088;SDS011;28709;52.030;5.652;2023-07-16T09:34:30;9.07;;;4.00;;
43088;SDS011;28709;52.030;5.652;2023-07-16T09:36:57;12.35;;;4.65;;
43088;SDS011;28709;52.030;5.652;2023-07-16T09:39:24;7.45;;;3.90;;
43088;SDS011;28709;52.030;5.652;2023-07-16T09:41:51;7.90;;;3.80;;
43088;SDS011;28709;52.030;5.652;2023-07-16T09:44:17;9.60;;;4.45;;
43088;SDS011;28709;52.030;5.652;2023-07-16T09:46:44;11.18;;;4.82;;
43088;SDS011;28709;52.030;5.652;2023-07-16T09:49:11;7.22;;;3.42;;
43088;SDS011;28709;52.030;5.652;2023-07-16T09:51:37;8.80;;;4.03;;
43088;SDS011;28709;52.030;5.652;2023-07-16T09:54:04;9.50;;;5.07;;
43088;SDS011;28709;52.030;5.652;2023-07-16T09:56:37;10.10;;;4.05;;
43088;SDS011;28709;52.030;5.652;2023-07-16T09:59:09;6.32;;;3.45;;
43088;SDS011;28709;52.030;5.652;2023-07-16T10:01:39;7.97;;;3.95;;
43088;SDS011;28709;52.030;5.652;2023-07-16T10:04:15;11.55;;;4.40;;
43088;SDS011;28709;52.030;5.652;2023-07-16T10:07:18;8.18;;;3.70;;
43088;SDS011;28709;52.030;5.652;2023-07-16T10:09:53;10.90;;;4.68;;
43088;SDS011;28709;52.030;5.652;2023-07-16T10:12:22;10.75;;;3.97;;
43088;SDS011;28709;52.030;5.652;2023-07-16T10:14:49;8.35;;;3.80;;
43088;SDS011;28709;52.030;5.652;2023-07-16T10:17:17;10.32;;;3.85;;
43088;SDS011;28709;52.030;5.652;2023-07-16T10:22:42;7.75;;;4.18;;
43088;SDS011;28709;52.030;5.652;2023-07-16T10:25:22;7.93;;;4.10;;
43088;SDS011;28709;52.030;5.652;2023-07-16T10:27:50;9.60;;;4.30;;
43088;SDS011;28709;52.030;5.652;2023-07-16T10:30:17;6.60;;;3.67;;
43088;SDS011;28709;52.030;5.652;2023-07-16T10:32:43;8.38;;;4.15;;
43088;SDS011;28709;52.030;5.652;2023-07-16T10:35:09;8.13;;;3.88;;
43088;SDS011;28709;52.030;5.652;2023-07-16T10:37:36;9.45;;;3.92;;
43088;SDS011;28709;52.030;5.652;2023-07-16T10:40:03;10.85;;;3.88;;
43088;SDS011;28709;52.030;5.652;2023-07-16T10:42:30;7.20;;;4.28;;
43088;SDS011;28709;52.030;5.652;2023-07-16T10:45:00;8.48;;;3.95;;
43088;SDS011;28709;52.030;5.652;2023-07-16T10:47:33;6.32;;;3.45;;
43088;SDS011;28709;52.030;5.652;2023-07-16T10:50:00;9.02;;;3.95;;
43088;SDS011;28709;52.030;5.652;2023-07-16T10:52:28;9.43;;;4.25;;
43088;SDS011;28709;52.030;5.652;2023-07-16T10:54:54;8.48;;;4.05;;
43088;SDS011;28709;52.030;5.652;2023-07-16T10:57:23;9.48;;;3.70;;
43088;SDS011;28709;52.030;5.652;2023-07-16T10:59:53;5.32;;;3.40;;
43088;SDS011;28709;52.030;5.652;2023-07-16T11:02:20;9.10;;;3.75;;
43088;SDS011;28709;52.030;5.652;2023-07-16T11:04:48;7.13;;;3.75;;
43088;SDS011;28709;52.030;5.652;2023-07-16T11:07:15;8.25;;;3.90;;
43088;SDS011;28709;52.030;5.652;2023-07-16T11:09:41;7.32;;;3.33;;
43088;SDS011;28709;52.030;5.652;2023-07-16T11:12:12;10.73;;;4.05;;
43088;SDS011;28709;52.030;5.652;2023-07-16T11:14:44;6.28;;;3.40;;
43088;SDS011;28709;52.030;5.652;2023-07-16T11:19:40;7.85;;;3.70;;
43088;SDS011;28709;52.030;5.652;2023-07-16T11:22:10;7.93;;;4.30;;
43088;SDS011;28709;52.030;5.652;2023-07-16T11:24:36;10.00;;;3.30;;
43088;SDS011;28709;52.030;5.652;2023-07-16T11:27:28;6.22;;;3.28;;
43088;SDS011;28709;52.030;5.652;2023-07-16T11:29:57;7.57;;;3.28;;
43088;SDS011;28709;52.030;5.652;2023-07-16T11:34:52;6.38;;;3.58;;
43088;SDS011;28709;52.030;5.652;2023-07-16T11:37:18;8.32;;;3.50;;
43088;SDS011;28709;52.030;5.652;2023-07-16T11:39:46;5.50;;;3.05;;
43088;SDS011;28709;52.030;5.652;2023-07-16T11:42:12;12.35;;;3.83;;
43088;SDS011;28709;52.030;5.652;2023-07-16T11:44:38;5.93;;;3.10;;
43088;SDS011;28709;52.030;5.652;2023-07-16T11:47:03;9.05;;;3.55;;
43088;SDS011;28709;52.030;5.652;2023-07-16T11:49:29;11.90;;;4.03;;
43088;SDS011;28709;52.030;5.652;2023-07-16T11:51:56;10.27;;;3.88;;
43088;SDS011;28709;52.030;5.652;2023-07-16T11:54:22;6.50;;;3.15;;
43088;SDS011;28709;52.030;5.652;2023-07-16T11:56:48;10.50;;;3.38;;
43088;SDS011;28709;52.030;5.652;2023-07-16T11:59:13;6.68;;;3.42;;
43088;SDS011;28709;52.030;5.652;2023-07-16T12:01:39;8.35;;;3.40;;
43088;SDS011;28709;52.030;5.652;2023-07-16T12:04:04;8.38;;;3.50;;
43088;SDS011;28709;52.030;5.652;2023-07-16T12:06:30;9.75;;;4.03;;
43088;SDS011;28709;52.030;5.652;2023-07-16T12:08:56;4.35;;;2.63;;
43088;SDS011;28709;52.030;5.652;2023-07-16T12:11:21;5.47;;;3.00;;
43088;SDS011;28709;52.030;5.652;2023-07-16T12:13:47;10.32;;;4.05;;
43088;SDS011;28709;52.030;5.652;2023-07-16T12:16:13;5.63;;;3.15;;
43088;SDS011;28709;52.030;5.652;2023-07-16T12:18:38;8.35;;;3.08;;
43088;SDS011;28709;52.030;5.652;2023-07-16T12:21:04;7.38;;;3.05;;
43088;SDS011;28709;52.030;5.652;2023-07-16T12:23:31;8.18;;;3.85;;
43088;SDS011;28709;52.030;5.652;2023-07-16T12:25:56;8.82;;;3.60;;
43088;SDS011;28709;52.030;5.652;2023-07-16T12:28:22;10.93;;;3.70;;
43088;SDS011;28709;52.030;5.652;2023-07-16T12:30:48;9.48;;;3.92;;
43088;SDS011;28709;52.030;5.652;2023-07-16T12:33:13;6.80;;;3.42;;
43088;SDS011;28709;52.030;5.652;2023-07-16T12:35:39;11.20;;;3.92;;
43088;SDS011;28709;52.030;5.652;2023-07-16T12:38:05;7.32;;;3.60;;
43088;SDS011;28709;52.030;5.652;2023-07-16T12:40:30;9.98;;;3.85;;
43088;SDS011;28709;52.030;5.652;2023-07-16T12:42:56;9.75;;;3.92;;
43088;SDS011;28709;52.030;5.652;2023-07-16T12:45:22;8.07;;;3.47;;
43088;SDS011;28709;52.030;5.652;2023-07-16T12:47:48;9.10;;;3.75;;
43088;SDS011;28709;52.030;5.652;2023-07-16T12:50:13;7.30;;;3.20;;
43088;SDS011;28709;52.030;5.652;2023-07-16T12:52:39;5.18;;;3.45;;
43088;SDS011;28709;52.030;5.652;2023-07-16T12:55:04;5.50;;;3.00;;
43088;SDS011;28709;52.030;5.652;2023-07-16T12:57:30;7.90;;;3.13;;
43088;SDS011;28709;52.030;5.652;2023-07-16T12:59:57;6.70;;;3.00;;
43088;SDS011;28709;52.030;5.652;2023-07-16T13:02:22;7.28;;;2.97;;
43088;SDS011;28709;52.030;5.652;2023-07-16T13:04:48;9.07;;;3.42;;
43088;SDS011;28709;52.030;5.652;2023-07-16T13:07:14;5.97;;;3.05;;
43088;SDS011;28709;52.030;5.652;2023-07-16T13:09:39;6.28;;;2.90;;
43088;SDS011;28709;52.030;5.652;2023-07-16T13:12:05;6.68;;;3.00;;
43088;SDS011;28709;52.030;5.652;2023-07-16T13:14:31;6.55;;;3.08;;
43088;SDS011;28709;52.030;5.652;2023-07-16T13:16:56;6.55;;;3.38;;
43088;SDS011;28709;52.030;5.652;2023-07-16T13:19:22;8.00;;;3.47;;
43088;SDS011;28709;52.030;5.652;2023-07-16T13:21:48;5.80;;;2.90;;
43088;SDS011;28709;52.030;5.652;2023-07-16T13:24:13;4.90;;;3.22;;
43088;SDS011;28709;52.030;5.652;2023-07-16T13:26:39;6.35;;;3.13;;
43088;SDS011;28709;52.030;5.652;2023-07-16T13:29:05;8.35;;;3.67;;
43088;SDS011;28709;52.030;5.652;2023-07-16T13:31:31;6.43;;;3.42;;
43088;SDS011;28709;52.030;5.652;2023-07-16T13:33:56;7.07;;;3.58;;
43088;SDS011;28709;52.030;5.652;2023-07-16T13:36:22;7.10;;;2.97;;
43088;SDS011;28709;52.030;5.652;2023-07-16T13:38:47;4.30;;;2.42;;
43088;SDS011;28709;52.030;5.652;2023-07-16T13:41:13;3.67;;;2.20;;
43088;SDS011;28709;52.030;5.652;2023-07-16T13:43:39;3.70;;;2.33;;
43088;SDS011;28709;52.030;5.652;2023-07-16T13:46:04;5.95;;;2.65;;
43088;SDS011;28709;52.030;5.652;2023-07-16T13:48:30;9.88;;;4.22;;
43088;SDS011;28709;52.030;5.652;2023-07-16T13:50:56;5.53;;;2.42;;
43088;SDS011;28709;52.030;5.652;2023-07-16T13:53:21;6.03;;;2.45;;
43088;SDS011;28709;52.030;5.652;2023-07-16T13:55:47;4.50;;;2.22;;
43088;SDS011;28709;52.030;5.652;2023-07-16T13:58:13;3.90;;;1.95;;
43088;SDS011;28709;52.030;5.652;2023-07-16T14:00:39;7.18;;;1.90;;
43088;SDS011;28709;52.030;5.652;2023-07-16T14:03:05;5.47;;;2.00;;
43088;SDS011;28709;52.030;5.652;2023-07-16T14:05:31;5.05;;;1.88;;
43088;SDS011;28709;52.030;5.652;2023-07-16T14:08:03;5.22;;;1.90;;
43088;SDS011;28709;52.030;5.652;2023-07-16T14:10:29;4.63;;;2.33;;
43088;SDS011;28709;52.030;5.652;2023-07-16T14:12:55;4.15;;;2.25;;
43088;SDS011;28709;52.030;5.652;2023-07-16T14:15:21;4.65;;;1.75;;
43088;SDS011;28709;52.030;5.652;2023-07-16T14:17:46;4.07;;;1.70;;
43088;SDS011;28709;52.030;5.652;2023-07-16T14:20:12;3.65;;;1.60;;
43088;SDS011;28709;52.030;5.652;2023-07-16T14:22:38;4.18;;;1.75;;
43088;SDS011;28709;52.030;5.652;2023-07-16T14:25:03;2.53;;;1.48;;
43088;SDS011;28709;52.030;5.652;2023-07-16T14:27:29;4.07;;;1.42;;
43088;SDS011;28709;52.030;5.652;2023-07-16T14:29:56;3.13;;;1.60;;
43088;SDS011;28709;52.030;5.652;2023-07-16T14:32:22;4.88;;;1.30;;
43088;SDS011;28709;52.030;5.652;2023-07-16T14:34:48;4.20;;;1.60;;
43088;SDS011;28709;52.030;5.652;2023-07-16T14:37:13;4.90;;;1.52;;
43088;SDS011;28709;52.030;5.652;2023-07-16T14:39:39;2.72;;;1.35;;
43088;SDS011;28709;52.030;5.652;2023-07-16T14:42:05;4.97;;;1.50;;
43088;SDS011;28709;52.030;5.652;2023-07-16T14:44:31;3.42;;;1.48;;
43088;SDS011;28709;52.030;5.652;2023-07-16T14:46:57;3.15;;;1.40;;
43088;SDS011;28709;52.030;5.652;2023-07-16T14:49:23;3.28;;;1.50;;
43088;SDS011;28709;52.030;5.652;2023-07-16T14:51:49;3.05;;;1.42;;
43088;SDS011;28709;52.030;5.652;2023-07-16T14:54:14;3.55;;;1.20;;
43088;SDS011;28709;52.030;5.652;2023-07-16T14:56:40;4.32;;;1.30;;